Time;durP1;ratioP1;P1;durP2;ratioP2;P2;SDS_P1;SDS_P2;PMS_P1;PMS_P2;Temp;Humidity;BMP_temperature;BMP_pressure;BME280_temperature;BME280_humidity;BME280_pressure;Samples;Min_cycle;Max_cycle;Signal;HPM_P1;HPM_P2
2021/04/09 00:02:21;;;;;;;9.10;6.30;;;20.00;41.20;;;;;;5115938;27;20092;-38
2021/04/09 00:04:48;;;;;;;8.90;6.45;;;20.00;41.30;;;;;;5117063;27;20048;-38
2021/04/09 00:07:15;;;;;;;8.32;6.28;;;20.00;41.20;;;;;;5116333;27;20044;-38
2021/04/09 00:09:42;;;;;;;8.27;6.18;;;20.00;41.80;;;;;;5132276;27;20050;-38
2021/04/09 00:12:10;;;;;;;9.45;6.50;;;20.00;41.20;;;;;;5131849;27;20059;-38
2021/04/09 00:14:37;;;;;;;8.85;5.78;;;20.00;41.20;;;;;;5129961;27;20098;-38
2021/04/09 00:17:06;;;;;;;10.55;6.53;;;20.00;41.20;;;;;;5131392;27;20074;-38
2021/04/09 00:19:33;;;;;;;8.45;5.82;;;20.00;41.20;;;;;;5133715;27;20487;-37
2021/04/09 00:21:59;;;;;;;8.38;5.95;;;20.00;41.20;;;;;;5132876;27;20123;-37
2021/04/09 00:24:26;;;;;;;10.02;6.60;;;20.00;41.20;;;;;;5133679;27;20035;-38
2021/04/09 00:26:54;;;;;;;9.90;6.65;;;20.00;41.20;;;;;;5114523;28;20039;-38
2021/04/09 00:29:21;;;;;;;9.30;6.82;;;20.00;41.80;;;;;;5128577;27;20483;-38
2021/04/09 00:31:48;;;;;;;9.80;7.05;;;20.00;41.10;;;;;;5118661;27;20055;-38
2021/04/09 00:34:15;;;;;;;8.15;5.75;;;20.00;41.20;;;;;;5134008;27;20043;-38
2021/04/09 00:36:41;;;;;;;8.35;5.85;;;20.00;41.10;;;;;;5133194;28;20051;-38
2021/04/09 00:39:09;;;;;;;7.65;5.78;;;20.00;41.10;;;;;;5132759;27;20072;-36
2021/04/09 00:41:37;;;;;;;7.75;6.13;;;20.00;41.10;;;;;;5130428;27;20050;-38
2021/04/09 00:44:06;;;;;;;8.07;6.22;;;20.00;41.10;;;;;;5131022;27;20043;-38
2021/04/09 00:46:33;;;;;;;9.73;6.68;;;20.00;41.10;;;;;;5132228;27;20091;-38
2021/04/09 00:49:00;;;;;;;8.20;6.05;;;20.00;41.10;;;;;;5132612;27;20492;-38
2021/04/09 00:51:28;;;;;;;8.85;6.22;;;20.00;41.10;;;;;;5129840;27;20490;-37
2021/04/09 00:53:55;;;;;;;9.38;6.20;;;20.00;41.10;;;;;;5130986;27;20089;-38
2021/04/09 00:56:26;;;;;;;7.43;5.70;;;20.00;41.10;;;;;;5129566;27;20093;-38
2021/04/09 00:58:55;;;;;;;8.48;6.60;;;20.00;41.10;;;;;;5132142;27;20529;-38
2021/04/09 01:01:25;;;;;;;8.32;6.40;;;20.00;41.10;;;;;;5129008;27;20045;-38
2021/04/09 01:03:54;;;;;;;9.68;6.10;;;20.00;41.10;;;;;;5116879;27;20388;-37
2021/04/09 01:06:21;;;;;;;8.73;6.13;;;20.00;41.10;;;;;;5131163;28;20050;-38
2021/04/09 01:08:49;;;;;;;7.20;5.70;;;20.00;41.10;;;;;;5132362;27;20424;-38
2021/04/09 01:11:16;;;;;;;8.73;6.05;;;20.00;41.10;;;;;;5130985;27;20126;-38
2021/04/09 01:13:45;;;;;;;7.03;5.85;;;20.00;41.10;;;;;;5132014;27;20452;-38
2021/04/09 01:16:41;;;;;;;7.18;5.80;;;20.00;41.10;;;;;;5132256;27;20076;-38
2021/04/09 01:19:31;;;;;;;8.60;5.95;;;20.00;41.10;;;;;;5117947;27;20083;-37
2021/04/09 01:22:02;;;;;;;8.48;5.88;;;20.00;41.10;;;;;;5115312;27;20044;-38
2021/04/09 01:25:06;;;;;;;8.55;6.15;;;20.00;41.10;;;;;;5135254;27;20047;-38
2021/04/09 01:27:51;;;;;;;6.80;5.60;;;20.00;41.10;;;;;;5134665;27;20507;-38
2021/04/09 01:30:30;;;;;;;7.53;5.65;;;20.00;41.10;;;;;;5132168;27;20043;-37
2021/04/09 01:32:57;;;;;;;7.72;5.72;;;20.00;41.10;;;;;;5134425;27;20099;-37
2021/04/09 01:35:25;;;;;;;7.35;5.70;;;20.00;41.10;;;;;;5134077;27;20072;-38
2021/04/09 01:38:07;;;;;;;6.68;5.47;;;20.00;41.10;;;;;;5134218;27;20047;-38
2021/04/09 01:40:40;;;;;;;7.18;5.55;;;20.00;41.10;;;;;;5133852;27;20112;-38
2021/04/09 01:43:12;;;;;;;8.00;5.70;;;20.00;41.10;;;;;;5134054;27;20104;-38
2021/04/09 01:45:39;;;;;;;9.05;5.95;;;20.00;41.10;;;;;;5126338;27;20548;-38
2021/04/09 01:48:09;;;;;;;8.88;6.50;;;20.00;41.10;;;;;;5125904;27;20044;-38
2021/04/09 01:50:37;;;;;;;7.70;5.45;;;20.00;41.10;;;;;;5130432;27;20552;-38
2021/04/09 01:53:07;;;;;;;8.10;5.70;;;20.00;41.10;;;;;;5121222;27;20469;-38
2021/04/09 01:55:38;;;;;;;8.15;6.13;;;20.00;41.10;;;;;;5136687;27;20441;-37
2021/04/09 01:58:06;;;;;;;7.65;5.90;;;20.00;41.10;;;;;;5134418;27;20055;-38
2021/04/09 02:00:32;;;;;;;8.38;5.80;;;20.00;41.10;;;;;;5115197;27;20052;-38
2021/04/09 02:03:00;;;;;;;8.13;5.70;;;20.00;41.10;;;;;;5134559;27;20050;-38
2021/04/09 02:05:29;;;;;;;6.85;5.60;;;20.00;41.10;;;;;;5136540;27;20050;-38
2021/04/09 02:07:57;;;;;;;7.40;5.50;;;20.00;41.10;;;;;;5134820;27;20043;-38
2021/04/09 02:10:26;;;;;;;7.85;5.65;;;19.90;41.60;;;;;;5133556;27;20043;-38
2021/04/09 02:12:54;;;;;;;8.30;5.75;;;19.90;41.00;;;;;;5133372;27;20104;-38
2021/04/09 02:15:25;;;;;;;8.57;5.38;;;20.00;41.10;;;;;;5124677;27;20048;-38
2021/04/09 02:17:52;;;;;;;7.40;5.55;;;20.00;41.10;;;;;;5119183;27;20059;-38
2021/04/09 02:20:22;;;;;;;7.95;5.45;;;19.90;41.00;;;;;;5118186;27;20043;-38
2021/04/09 02:22:50;;;;;;;8.30;5.65;;;20.00;41.00;;;;;;5117507;27;20040;-38
2021/04/09 02:25:20;;;;;;;7.40;5.60;;;20.00;41.00;;;;;;5118770;27;20043;-37
2021/04/09 02:27:49;;;;;;;6.72;5.10;;;19.90;40.90;;;;;;5119913;27;20074;-38
2021/04/09 02:30:18;;;;;;;8.20;5.53;;;19.90;40.90;;;;;;5127117;27;20112;-38
2021/04/09 02:32:45;;;;;;;7.00;5.18;;;19.90;40.90;;;;;;5115972;27;20047;-38
2021/04/09 02:35:14;;;;;;;7.93;5.57;;;19.90;40.90;;;;;;5112470;27;20411;-38
2021/04/09 02:37:43;;;;;;;6.55;5.15;;;19.90;40.90;;;;;;5102818;27;20047;-37
2021/04/09 02:40:15;;;;;;;7.30;5.75;;;19.90;40.90;;;;;;5118293;27;20716;-38
2021/04/09 02:42:45;;;;;;;7.10;5.32;;;19.90;40.90;;;;;;5130240;27;20452;-37
2021/04/09 02:45:14;;;;;;;7.05;5.25;;;19.90;40.90;;;;;;5124331;27;20073;-38
2021/04/09 02:47:43;;;;;;;8.20;5.50;;;19.90;40.90;;;;;;5127811;27;20043;-39
2021/04/09 02:50:27;;;;;;;9.77;5.50;;;19.90;40.90;;;;;;5132769;27;20047;-38
2021/04/09 02:53:09;;;;;;;5.93;5.07;;;19.90;40.90;;;;;;5133067;27;20444;-38
2021/04/09 02:55:42;;;;;;;6.28;5.20;;;19.90;40.90;;;;;;5133940;27;20360;-38
2021/04/09 02:58:11;;;;;;;7.35;5.20;;;19.90;40.90;;;;;;5130550;27;20129;-39
2021/04/09 03:00:43;;;;;;;5.82;4.78;;;19.90;40.90;;;;;;5134996;27;20104;-38
2021/04/09 03:03:11;;;;;;;6.05;4.80;;;19.90;40.90;;;;;;5132699;27;20441;-38
2021/04/09 03:05:39;;;;;;;7.00;5.43;;;19.90;40.90;;;;;;5133980;27;20070;-38
2021/04/09 03:08:08;;;;;;;6.78;5.13;;;19.90;40.90;;;;;;5116249;27;20068;-38
2021/04/09 03:10:35;;;;;;;5.90;4.80;;;19.90;40.90;;;;;;5132411;27;20133;-38
2021/04/09 03:13:02;;;;;;;7.78;4.90;;;19.90;40.90;;;;;;5134745;27;20502;-39
2021/04/09 03:15:37;;;;;;;7.07;5.25;;;19.90;40.90;;;;;;5132100;27;20055;-38
2021/04/09 03:18:08;;;;;;;7.47;5.30;;;19.90;40.90;;;;;;5133361;27;20104;-38
2021/04/09 03:20:35;;;;;;;6.72;5.07;;;19.90;40.90;;;;;;5132346;27;20051;-38
2021/04/09 03:23:03;;;;;;;7.03;4.95;;;19.90;40.90;;;;;;5131029;27;20092;-39
2021/04/09 03:25:30;;;;;;;6.82;5.15;;;19.90;40.90;;;;;;5132324;27;20087;-38
2021/04/09 03:27:57;;;;;;;6.22;4.80;;;19.90;40.90;;;;;;5131083;27;20039;-38
2021/04/09 03:30:25;;;;;;;8.40;4.95;;;19.90;40.90;;;;;;5129408;27;20066;-38
2021/04/09 03:32:52;;;;;;;6.93;4.82;;;19.90;40.90;;;;;;5130857;27;20044;-38
2021/04/09 03:35:20;;;;;;;5.82;4.72;;;19.90;41.00;;;;;;5133226;27;20486;-38
2021/04/09 03:37:47;;;;;;;7.25;5.07;;;19.90;40.90;;;;;;5115463;27;20101;-38
2021/04/09 03:40:15;;;;;;;7.00;4.95;;;19.90;40.90;;;;;;5132161;27;20058;-38
2021/04/09 03:42:42;;;;;;;5.53;4.53;;;19.90;40.90;;;;;;5133245;27;20047;-38
2021/04/09 03:45:09;;;;;;;7.72;5.47;;;19.90;40.90;;;;;;5133224;27;20092;-39
2021/04/09 03:47:37;;;;;;;6.80;5.18;;;19.90;40.90;;;;;;5121791;27;20044;-38
2021/04/09 03:50:05;;;;;;;6.72;4.80;;;19.90;40.90;;;;;;5125382;27;20444;-38
2021/04/09 03:52:32;;;;;;;5.60;4.50;;;19.90;40.90;;;;;;5130338;27;20047;-38
2021/04/09 03:54:59;;;;;;;6.47;5.40;;;19.90;40.90;;;;;;5132584;27;20117;-38
2021/04/09 03:57:26;;;;;;;6.78;4.78;;;19.90;40.90;;;;;;5130358;27;20076;-38
2021/04/09 03:59:52;;;;;;;6.88;4.75;;;19.90;40.90;;;;;;5130319;27;20079;-39
2021/04/09 04:02:19;;;;;;;8.10;5.13;;;19.90;40.90;;;;;;5113352;27;20035;-39
2021/04/09 04:04:45;;;;;;;6.47;5.07;;;19.90;40.90;;;;;;5114790;27;20131;-38
2021/04/09 04:07:12;;;;;;;6.70;4.63;;;19.90;40.90;;;;;;5131814;27;20398;-38
2021/04/09 04:09:39;;;;;;;7.55;4.95;;;19.90;40.90;;;;;;5132296;27;20055;-38
2021/04/09 04:12:06;;;;;;;5.28;4.28;;;19.90;40.90;;;;;;5130786;27;20043;-38
2021/04/09 04:14:33;;;;;;;7.00;4.90;;;19.90;40.90;;;;;;5131077;27;20087;-38
2021/04/09 04:17:01;;;;;;;5.45;4.40;;;19.90;40.90;;;;;;5132368;27;20051;-38
2021/04/09 04:19:28;;;;;;;7.30;5.10;;;19.90;40.90;;;;;;5131125;27;20046;-38
2021/04/09 04:21:54;;;;;;;6.72;5.13;;;19.90;40.90;;;;;;5131229;27;20111;-37
2021/04/09 04:24:21;;;;;;;7.63;5.22;;;19.90;40.90;;;;;;5131899;27;20402;-38
2021/04/09 04:26:47;;;;;;;6.00;4.38;;;19.90;40.90;;;;;;5112768;28;20044;-38
2021/04/09 04:29:14;;;;;;;5.82;4.60;;;19.90;40.90;;;;;;5131931;27;20117;-38
2021/04/09 04:31:41;;;;;;;6.63;4.65;;;19.90;40.90;;;;;;5131668;27;20448;-38
2021/04/09 04:34:08;;;;;;;6.05;4.65;;;19.90;40.90;;;;;;5133351;27;20130;-38
2021/04/09 04:36:35;;;;;;;6.53;4.50;;;19.90;40.90;;;;;;5117037;27;20047;-38
2021/04/09 04:39:02;;;;;;;5.00;4.13;;;19.90;40.90;;;;;;5128059;27;20043;-38
2021/04/09 04:41:29;;;;;;;6.13;4.53;;;19.90;40.80;;;;;;5131454;27;20039;-38
2021/04/09 04:43:56;;;;;;;5.82;4.25;;;19.90;40.90;;;;;;5132318;27;20054;-38
2021/04/09 04:46:26;;;;;;;5.22;4.13;;;19.90;40.80;;;;;;5132632;27;20044;-38
2021/04/09 04:48:53;;;;;;;6.28;4.53;;;19.90;40.80;;;;;;5130940;27;20134;-38
2021/04/09 04:51:20;;;;;;;6.90;4.57;;;19.90;40.90;;;;;;5130836;27;20494;-38
2021/04/09 04:53:47;;;;;;;5.78;4.43;;;19.90;40.80;;;;;;5128816;27;20092;-39
2021/04/09 04:56:13;;;;;;;6.72;4.55;;;19.90;40.80;;;;;;5114329;27;20044;-38
2021/04/09 04:58:40;;;;;;;6.40;4.40;;;19.90;40.80;;;;;;5117095;27;20065;-38
2021/04/09 05:01:06;;;;;;;5.72;4.28;;;19.90;40.80;;;;;;5119226;27;20043;-38
2021/04/09 05:03:33;;;;;;;6.05;4.43;;;19.90;40.80;;;;;;5135846;27;20087;-38
2021/04/09 05:05:59;;;;;;;5.50;4.55;;;19.90;40.80;;;;;;5134771;27;20154;-38
2021/04/09 05:08:26;;;;;;;6.28;4.45;;;19.90;40.80;;;;;;5126375;27;20055;-38
2021/04/09 05:10:53;;;;;;;5.53;4.07;;;19.90;40.80;;;;;;5130716;27;20448;-38
2021/04/09 05:13:19;;;;;;;6.30;4.40;;;19.90;40.80;;;;;;5127610;27;20047;-38
2021/04/09 05:15:48;;;;;;;6.78;4.40;;;19.90;40.80;;;;;;5126176;27;20078;-38
2021/04/09 05:18:15;;;;;;;7.20;4.85;;;19.90;40.80;;;;;;5132852;27;20070;-38
2021/04/09 05:20:42;;;;;;;5.57;4.35;;;19.90;40.80;;;;;;5118714;27;20100;-37
2021/04/09 05:23:09;;;;;;;5.20;3.67;;;19.90;40.80;;;;;;5119967;27;20063;-39
2021/04/09 05:25:36;;;;;;;6.00;4.80;;;19.90;40.80;;;;;;5117806;27;20047;-38
2021/04/09 05:28:03;;;;;;;6.75;4.90;;;19.90;40.80;;;;;;5137356;27;20128;-37
2021/04/09 05:30:30;;;;;;;5.10;3.85;;;19.90;40.80;;;;;;5104277;28;20048;-38
2021/04/09 05:32:56;;;;;;;5.80;4.22;;;19.90;40.80;;;;;;5133616;27;20091;-38
2021/04/09 05:35:25;;;;;;;5.88;4.30;;;19.90;40.80;;;;;;5135862;27;20078;-38
2021/04/09 05:37:52;;;;;;;5.55;4.15;;;19.90;40.80;;;;;;5135272;27;20047;-38
2021/04/09 05:40:21;;;;;;;6.60;4.40;;;19.90;40.80;;;;;;5135616;27;20061;-38
2021/04/09 05:42:59;;;;;;;6.15;4.43;;;19.90;40.80;;;;;;5117594;27;20051;-38
2021/04/09 05:45:26;;;;;;;6.20;4.75;;;19.90;40.80;;;;;;5133820;27;20387;-38
2021/04/09 05:47:54;;;;;;;5.22;3.90;;;19.90;40.80;;;;;;5113815;27;20452;-38
2021/04/09 05:50:21;;;;;;;5.50;4.30;;;19.90;40.70;;;;;;5113197;27;20103;-38
2021/04/09 05:52:48;;;;;;;6.53;4.10;;;19.90;40.80;;;;;;5134022;27;20047;-38
2021/04/09 05:55:15;;;;;;;6.00;4.13;;;19.90;40.80;;;;;;5135149;27;20055;-38
2021/04/09 05:57:42;;;;;;;5.00;3.72;;;19.90;40.70;;;;;;5134990;27;20047;-38
2021/04/09 06:00:10;;;;;;;5.95;4.18;;;19.90;40.70;;;;;;5134030;27;20116;-38
2021/04/09 06:02:37;;;;;;;4.72;4.00;;;19.90;40.80;;;;;;5116893;27;20043;-39
2021/04/09 06:05:05;;;;;;;5.18;3.95;;;19.90;40.70;;;;;;5132845;27;20054;-38
2021/04/09 06:07:31;;;;;;;3.88;3.33;;;19.90;40.70;;;;;;5132301;27;20044;-38
2021/04/09 06:09:58;;;;;;;4.78;3.67;;;19.90;40.70;;;;;;5134138;27;20051;-38
2021/04/09 06:12:24;;;;;;;5.53;3.97;;;19.90;40.70;;;;;;5132900;27;20047;-38
2021/04/09 06:14:54;;;;;;;4.85;3.83;;;19.90;40.70;;;;;;5092458;28;20048;-38
2021/04/09 06:17:20;;;;;;;5.38;3.72;;;19.90;40.90;;;;;;5092320;28;20044;-39
2021/04/09 06:19:47;;;;;;;5.07;4.00;;;19.90;41.30;;;;;;5094191;28;20048;-38
2021/04/09 06:22:17;;;;;;;6.07;4.38;;;19.90;40.70;;;;;;5092180;28;20127;-38
2021/04/09 06:24:44;;;;;;;5.07;3.58;;;19.90;40.70;;;;;;5092939;28;20093;-38
2021/04/09 06:27:11;;;;;;;5.47;3.97;;;19.90;40.70;;;;;;5093820;28;20377;-38
2021/04/09 06:29:38;;;;;;;5.70;3.67;;;19.90;40.70;;;;;;5084153;28;20074;-38
2021/04/09 06:32:06;;;;;;;4.22;3.55;;;19.90;40.70;;;;;;5092049;28;20131;-39
2021/04/09 06:34:33;;;;;;;5.40;4.03;;;19.90;40.70;;;;;;5093696;28;20063;-39
2021/04/09 06:37:00;;;;;;;5.03;4.28;;;19.90;40.70;;;;;;5092241;28;20441;-38
2021/04/09 06:39:27;;;;;;;5.47;4.18;;;19.90;40.70;;;;;;5089717;28;20044;-39
2021/04/09 06:41:54;;;;;;;4.38;3.70;;;19.90;40.70;;;;;;5091653;28;20102;-38
2021/04/09 06:44:21;;;;;;;5.82;3.95;;;19.90;40.70;;;;;;5091717;28;20040;-38
2021/04/09 06:46:48;;;;;;;5.10;3.60;;;19.90;40.70;;;;;;5093241;28;20110;-38
2021/04/09 06:49:14;;;;;;;5.03;3.53;;;19.90;40.70;;;;;;5092081;28;20058;-38
2021/04/09 06:51:45;;;;;;;5.20;3.90;;;19.90;40.70;;;;;;5093264;28;20048;-39
2021/04/09 06:54:15;;;;;;;4.90;3.90;;;19.90;40.70;;;;;;5091662;28;20097;-38
2021/04/09 06:56:46;;;;;;;4.43;3.40;;;19.90;40.60;;;;;;5092931;28;20101;-38
2021/04/09 06:59:16;;;;;;;5.82;4.07;;;19.90;40.60;;;;;;5092786;28;20119;-38
2021/04/09 07:01:45;;;;;;;4.70;3.50;;;19.90;40.60;;;;;;5092759;28;20084;-39
2021/04/09 07:04:13;;;;;;;5.65;4.35;;;19.90;40.60;;;;;;5093059;28;20055;-38
2021/04/09 07:06:40;;;;;;;6.05;4.13;;;19.90;40.60;;;;;;5092701;28;20561;-40
2021/04/09 07:09:08;;;;;;;5.40;3.80;;;19.90;40.60;;;;;;5092854;28;20043;-39
2021/04/09 07:11:38;;;;;;;5.10;3.30;;;19.90;40.60;;;;;;5094130;28;20056;-38
2021/04/09 07:14:05;;;;;;;4.75;3.35;;;19.90;40.60;;;;;;5119272;27;20046;-38
2021/04/09 07:16:35;;;;;;;5.25;3.53;;;19.90;40.60;;;;;;5133977;27;20070;-39
2021/04/09 07:19:06;;;;;;;4.75;3.97;;;19.90;40.50;;;;;;5114961;27;20043;-39
2021/04/09 07:21:34;;;;;;;5.47;3.88;;;19.90;40.50;;;;;;5114385;27;20075;-38
2021/04/09 07:24:22;;;;;;;4.00;3.55;;;19.90;40.60;;;;;;5132514;27;20047;-39
2021/04/09 07:26:52;;;;;;;4.75;3.53;;;19.90;40.50;;;;;;5117631;27;20043;-39
2021/04/09 07:29:31;;;;;;;4.38;3.40;;;19.90;40.50;;;;;;5117898;27;20051;-40
2021/04/09 07:32:00;;;;;;;5.38;3.92;;;19.90;40.50;;;;;;5132880;27;20134;-40
2021/04/09 07:34:53;;;;;;;5.32;3.78;;;19.90;40.50;;;;;;5120615;27;20052;-38
2021/04/09 07:37:23;;;;;;;4.80;3.30;;;19.90;40.50;;;;;;5130723;27;20050;-38
2021/04/09 07:39:54;;;;;;;4.53;3.75;;;19.90;40.50;;;;;;5134367;27;20050;-38
2021/04/09 07:42:38;;;;;;;4.63;3.75;;;19.90;40.50;;;;;;5130241;27;20039;-38
2021/04/09 07:45:10;;;;;;;4.25;3.22;;;19.90;40.50;;;;;;5133979;27;20526;-38
2021/04/09 07:47:42;;;;;;;3.22;2.92;;;19.90;40.50;;;;;;5131725;27;20065;-38
2021/04/09 07:50:12;;;;;;;5.30;3.70;;;19.90;40.50;;;;;;5133100;27;20458;-38
2021/04/09 07:52:45;;;;;;;4.97;3.50;;;19.90;40.50;;;;;;5131655;27;20055;-39
2021/04/09 07:55:23;;;;;;;4.47;3.35;;;19.90;40.50;;;;;;5131665;27;20050;-38
2021/04/09 07:57:50;;;;;;;5.20;3.38;;;19.90;40.50;;;;;;5112938;27;20051;-38
2021/04/09 08:00:25;;;;;;;4.25;3.53;;;19.90;40.50;;;;;;5131012;27;20043;-38
2021/04/09 08:02:56;;;;;;;3.90;3.28;;;19.90;40.40;;;;;;5131452;27;20396;-38
2021/04/09 08:05:26;;;;;;;4.32;3.05;;;19.90;40.40;;;;;;5113131;27;20073;-38
2021/04/09 08:07:53;;;;;;;4.40;3.45;;;19.90;40.40;;;;;;5132953;27;20045;-39
2021/04/09 08:10:27;;;;;;;4.10;3.25;;;19.90;40.30;;;;;;5133112;27;20039;-38
2021/04/09 08:12:55;;;;;;;5.22;3.53;;;19.90;40.30;;;;;;5130651;27;20047;-39
2021/04/09 08:15:28;;;;;;;3.97;2.97;;;19.90;40.30;;;;;;5131495;27;20523;-38
2021/04/09 08:18:11;;;;;;;3.17;2.80;;;19.90;40.30;;;;;;5113374;28;20134;-38
2021/04/09 08:20:40;;;;;;;5.63;3.50;;;19.90;40.30;;;;;;5132727;27;20043;-38
2021/04/09 08:23:08;;;;;;;4.57;3.22;;;20.00;40.30;;;;;;5131004;27;20043;-37
2021/04/09 08:25:36;;;;;;;3.78;2.92;;;19.90;40.20;;;;;;5114108;28;20452;-38
2021/04/09 08:28:07;;;;;;;4.30;3.20;;;19.90;40.20;;;;;;5130088;27;20436;-38
2021/04/09 08:30:35;;;;;;;3.85;2.95;;;19.90;40.20;;;;;;5128381;27;20035;-38
2021/04/09 08:33:03;;;;;;;3.88;3.28;;;20.00;40.30;;;;;;5133116;27;20039;-39
2021/04/09 08:35:30;;;;;;;3.40;2.80;;;20.00;40.30;;;;;;5135562;27;20043;-37
2021/04/09 08:37:59;;;;;;;3.75;2.80;;;20.00;40.30;;;;;;5135354;27;20068;-38
2021/04/09 08:40:26;;;;;;;4.32;3.03;;;20.00;40.20;;;;;;5132920;27;20043;-38
2021/04/09 08:42:53;;;;;;;3.92;2.95;;;20.00;40.20;;;;;;5120333;27;20039;-38
2021/04/09 08:45:20;;;;;;;4.10;3.05;;;20.00;40.20;;;;;;5137005;27;20445;-37
2021/04/09 08:47:54;;;;;;;4.10;2.65;;;20.00;40.20;;;;;;5135896;27;20050;-37
2021/04/09 08:50:23;;;;;;;3.85;2.90;;;20.00;40.10;;;;;;5135159;27;20126;-38
2021/04/09 08:52:50;;;;;;;3.67;2.83;;;20.00;40.20;;;;;;5136606;27;20107;-38
2021/04/09 08:55:34;;;;;;;4.05;3.10;;;20.00;40.20;;;;;;5133770;27;20051;-38
2021/04/09 08:58:14;;;;;;;3.83;2.67;;;20.00;40.20;;;;;;5134665;27;20086;-39
2021/04/09 09:00:41;;;;;;;3.78;3.00;;;20.00;40.20;;;;;;5135384;27;20074;-38
2021/04/09 09:03:29;;;;;;;3.95;3.00;;;20.00;40.10;;;;;;5116787;27;20043;-37
2021/04/09 09:06:07;;;;;;;3.45;2.78;;;20.00;40.10;;;;;;5116899;27;20095;-38
2021/04/09 09:08:57;;;;;;;3.35;2.60;;;20.00;40.10;;;;;;5134483;27;20039;-38
2021/04/09 09:11:53;;;;;;;3.08;2.53;;;20.00;40.10;;;;;;5120164;27;20047;-38
2021/04/09 09:14:40;;;;;;;4.68;2.75;;;20.00;40.10;;;;;;5124183;27;20142;-38
2021/04/09 09:17:19;;;;;;;3.95;2.70;;;20.00;40.10;;;;;;5132750;27;20047;-38
2021/04/09 09:20:20;;;;;;;3.45;2.78;;;20.00;40.10;;;;;;5135743;27;20047;-38
2021/04/09 09:22:52;;;;;;;3.28;2.50;;;20.00;40.10;;;;;;5033836;28;20056;-38
2021/04/09 09:25:35;;;;;;;4.07;2.97;;;20.00;40.10;;;;;;5032298;28;20049;-37
2021/04/09 09:28:03;;;;;;;3.78;2.80;;;20.00;40.10;;;;;;5018702;28;20046;-38
2021/04/09 09:30:42;;;;;;;4.10;3.00;;;20.00;40.10;;;;;;5015590;28;20526;-38
2021/04/09 09:33:21;;;;;;;3.97;2.85;;;20.00;40.10;;;;;;5014901;28;20537;-38
2021/04/09 09:36:08;;;;;;;3.40;2.83;;;20.00;40.10;;;;;;5027961;28;20127;-38
2021/04/09 09:38:51;;;;;;;3.42;2.28;;;20.00;40.10;;;;;;5020265;28;20417;-38
2021/04/09 09:41:47;;;;;;;2.88;2.40;;;20.00;40.10;;;;;;5030150;28;20061;-38
2021/04/09 09:44:36;;;;;;;3.83;2.53;;;20.00;40.10;;;;;;5015998;28;20045;-37
2021/04/09 09:47:27;;;;;;;3.65;2.65;;;20.00;40.00;;;;;;5016989;28;20046;-37
2021/04/09 09:50:10;;;;;;;3.53;2.45;;;20.00;40.00;;;;;;5017134;28;20141;-37
2021/04/09 09:52:46;;;;;;;3.15;2.42;;;20.00;40.10;;;;;;5031080;28;20050;-39
2021/04/09 09:55:34;;;;;;;2.72;2.28;;;20.00;40.00;;;;;;5032369;28;20095;-37
2021/04/09 09:58:04;;;;;;;3.58;2.38;;;20.00;40.00;;;;;;5051649;28;20051;-37
2021/04/09 10:00:33;;;;;;;3.63;2.50;;;20.10;40.10;;;;;;5120433;27;20062;-37
2021/04/09 10:03:13;;;;;;;4.10;2.50;;;20.00;40.10;;;;;;5119177;27;20039;-36
2021/04/09 10:05:43;;;;;;;3.10;2.47;;;20.00;40.10;;;;;;5132147;27;20039;-37
2021/04/09 10:08:10;;;;;;;3.72;2.47;;;20.10;40.10;;;;;;5123673;27;20406;-37
2021/04/09 10:10:39;;;;;;;4.18;2.67;;;20.10;40.10;;;;;;5127876;27;20039;-38
2021/04/09 10:13:27;;;;;;;3.45;2.42;;;20.10;40.10;;;;;;5128365;27;20060;-38
2021/04/09 10:16:06;;;;;;;3.22;2.13;;;20.00;40.00;;;;;;5127038;27;20100;-38
2021/04/09 10:18:34;;;;;;;3.45;2.63;;;20.10;40.10;;;;;;5133434;27;20043;-37
2021/04/09 10:21:19;;;;;;;3.58;2.53;;;20.10;40.10;;;;;;5135724;27;20053;-39
2021/04/09 10:23:50;;;;;;;3.75;2.60;;;20.10;40.10;;;;;;5133235;27;20039;-37
2021/04/09 10:26:22;;;;;;;3.65;2.60;;;20.00;40.10;;;;;;5132031;27;20039;-37
2021/04/09 10:28:49;;;;;;;3.10;2.28;;;20.10;40.10;;;;;;5117366;27;20120;-37
2021/04/09 10:31:20;;;;;;;3.90;2.65;;;20.10;40.10;;;;;;5121534;27;20079;-37
2021/04/09 10:33:50;;;;;;;3.63;2.80;;;20.10;40.10;;;;;;5133602;27;20383;-37
2021/04/09 10:36:25;;;;;;;3.78;2.58;;;20.10;40.10;;;;;;5116799;27;20047;-37
2021/04/09 10:38:54;;;;;;;3.67;2.45;;;20.10;40.10;;;;;;5132539;27;20096;-37
2021/04/09 10:41:28;;;;;;;3.60;2.65;;;20.10;40.10;;;;;;5133621;27;20054;-37
2021/04/09 10:43:56;;;;;;;;;;;20.10;40.10;;;;;;5134801;27;20104;-37
2021/04/09 10:46:25;;;;;;;3.53;2.50;;;20.10;40.10;;;;;;5131755;27;19919;-37
2021/04/09 10:48:59;;;;;;;2.70;2.10;;;20.10;40.20;;;;;;5131615;27;20096;-38
2021/04/09 10:51:35;;;;;;;3.75;2.40;;;20.10;40.20;;;;;;5134118;27;20440;-36
2021/04/09 10:54:12;;;;;;;3.47;2.72;;;20.10;40.20;;;;;;5132733;27;20043;-40
2021/04/09 10:56:42;;;;;;;2.70;2.20;;;20.10;40.20;;;;;;5132996;27;20084;-37
2021/04/09 10:59:12;;;;;;;3.38;2.35;;;20.10;40.20;;;;;;5132688;27;20096;-37
2021/04/09 11:01:40;;;;;;;4.15;2.85;;;20.10;40.20;;;;;;5132425;27;20057;-38
2021/04/09 11:04:08;;;;;;;3.90;2.53;;;20.10;40.20;;;;;;5132570;27;20043;-37
2021/04/09 11:06:52;;;;;;;3.67;2.50;;;20.00;40.10;;;;;;5132432;27;20039;-37
2021/04/09 11:09:19;;;;;;;3.00;2.40;;;20.10;40.20;;;;;;5132248;27;20486;-37
2021/04/09 11:11:46;;;;;;;2.88;2.13;;;20.00;40.10;;;;;;5116819;27;20095;-37
2021/04/09 11:14:19;;;;;;;3.50;2.60;;;20.10;40.20;;;;;;5133633;27;20051;-38
2021/04/09 11:16:56;;;;;;;4.85;2.47;;;20.10;40.20;;;;;;5115808;27;20058;-38
2021/04/09 11:19:43;;;;;;;3.72;2.50;;;20.10;40.20;;;;;;5115800;27;20422;-37
2021/04/09 11:22:16;;;;;;;3.03;2.50;;;20.10;40.20;;;;;;5098790;27;20054;-37
2021/04/09 11:24:43;;;;;;;3.00;2.47;;;20.10;40.20;;;;;;5115709;27;20054;-37
2021/04/09 11:27:18;;;;;;;3.35;2.40;;;20.10;40.20;;;;;;5133500;27;20136;-38
2021/04/09 11:29:45;;;;;;;4.20;2.55;;;20.10;40.20;;;;;;5124822;27;20074;-38
2021/04/09 11:32:19;;;;;;;3.63;2.33;;;20.10;40.20;;;;;;5115484;27;20081;-37
2021/04/09 11:34:51;;;;;;;2.60;1.90;;;20.10;40.10;;;;;;5133515;27;20051;-37
2021/04/09 11:37:21;;;;;;;3.05;2.40;;;20.10;40.80;;;;;;5132134;27;20047;-38
2021/04/09 11:39:57;;;;;;;3.20;2.30;;;20.10;40.20;;;;;;5132026;27;20043;-37
2021/04/09 11:42:43;;;;;;;3.20;2.40;;;20.10;40.10;;;;;;5133447;27;20043;-37
2021/04/09 11:45:13;;;;;;;2.42;2.08;;;20.10;40.20;;;;;;5132187;27;20045;-37
2021/04/09 11:47:42;;;;;;;2.40;1.95;;;20.10;40.20;;;;;;5133098;27;20072;-38
2021/04/09 11:50:23;;;;;;;2.95;2.28;;;20.10;40.20;;;;;;5130894;27;20420;-37
2021/04/09 11:53:00;;;;;;;2.70;2.20;;;20.10;40.20;;;;;;5131502;27;20043;-38
2021/04/09 11:55:35;;;;;;;3.00;2.60;;;20.10;40.20;;;;;;5131442;27;20042;-37
2021/04/09 11:58:04;;;;;;;3.97;2.53;;;20.10;40.70;;;;;;5133198;27;20156;-37
2021/04/09 12:00:33;;;;;;;3.28;2.42;;;20.10;40.20;;;;;;5130260;27;20555;-38
2021/04/09 12:03:09;;;;;;;2.80;2.15;;;20.10;40.20;;;;;;5116184;27;20088;-38
2021/04/09 12:05:36;;;;;;;3.42;2.35;;;20.10;40.10;;;;;;5131891;27;20051;-37
2021/04/09 12:08:05;;;;;;;2.90;2.10;;;20.10;40.10;;;;;;5114764;27;20051;-38
2021/04/09 12:10:33;;;;;;;4.50;2.28;;;20.10;40.20;;;;;;5131819;27;20539;-37
2021/04/09 12:13:00;;;;;;;3.05;2.10;;;20.10;40.10;;;;;;5133145;27;20059;-37
2021/04/09 12:15:28;;;;;;;2.78;2.10;;;20.10;40.20;;;;;;5131382;27;20440;-37
2021/04/09 12:17:56;;;;;;;3.20;2.25;;;20.10;40.10;;;;;;5118863;27;20507;-37
2021/04/09 12:20:26;;;;;;;2.83;2.45;;;20.10;40.10;;;;;;5115820;27;20122;-37
2021/04/09 12:22:56;;;;;;;2.70;2.20;;;20.10;40.10;;;;;;5124399;27;20050;-38
2021/04/09 12:25:23;;;;;;;2.83;2.20;;;20.10;40.10;;;;;;5131077;27;20415;-37
2021/04/09 12:27:50;;;;;;;3.40;2.17;;;20.10;40.10;;;;;;5131113;27;20043;-37
2021/04/09 12:30:17;;;;;;;3.80;2.17;;;20.10;40.10;;;;;;5128681;27;20039;-38
2021/04/09 12:32:44;;;;;;;3.65;1.90;;;20.10;40.20;;;;;;5131183;27;20043;-38
2021/04/09 12:35:11;;;;;;;3.05;2.22;;;20.10;40.10;;;;;;5133876;27;20092;-37
2021/04/09 12:37:38;;;;;;;2.95;2.47;;;20.10;40.10;;;;;;5131878;28;20082;-38
2021/04/09 12:40:06;;;;;;;2.58;2.05;;;20.10;40.10;;;;;;5114340;28;20101;-37
2021/04/09 12:42:33;;;;;;;3.13;2.10;;;20.10;40.10;;;;;;5132324;27;20052;-38
2021/04/09 12:44:59;;;;;;;2.92;2.00;;;20.10;40.10;;;;;;5118443;27;20376;-37
2021/04/09 12:47:26;;;;;;;3.10;2.28;;;20.10;40.10;;;;;;5113123;28;20039;-37
2021/04/09 12:49:53;;;;;;;3.47;2.28;;;20.10;40.10;;;;;;5124125;27;20407;-38
2021/04/09 12:52:20;;;;;;;3.88;2.00;;;20.10;40.10;;;;;;5116077;27;20043;-37
2021/04/09 12:54:46;;;;;;;3.55;2.17;;;20.10;40.10;;;;;;5110028;28;20043;-39
2021/04/09 12:57:14;;;;;;;3.10;2.03;;;20.10;40.10;;;;;;5116722;27;20142;-38
2021/04/09 12:59:41;;;;;;;3.20;2.40;;;20.10;40.10;;;;;;5111900;28;20043;-38
2021/04/09 13:02:25;;;;;;;2.90;2.40;;;20.10;40.10;;;;;;5116417;27;20050;-38
2021/04/09 13:04:52;;;;;;;3.83;2.40;;;20.10;40.10;;;;;;5114514;27;20460;-38
2021/04/09 13:07:18;;;;;;;3.08;2.17;;;20.10;40.10;;;;;;5130534;28;20047;-37